»·PEaware :: N172BK KTSP-KTNP

N172BK :: KTSP-KTNP

FLIGHT INFORMATION

Flight Status: Arrived
Operator: Privately registered:
United States
More flights under this callsign
Pilot: Jari J. (4222)
Aircraft: CESSNA 172 SKYHAWK
(C172)
More flights by this aircraft type
Origin: KTSP Tehachapi Mun
United States
Destination: KTNP Twentynine Palms
United States
More flights between these airports :: More routes between these airports
Route: +PMD V137 PSP V370 TNP
File this flight plan on PilotEdge
Remarks:
Altitude:
(Current/Filed)
11,000ft
Speed:
(Current/Filed)
125kts
Departed: 17-Jun-16 07:53 PM
Arrived: 17-Jun-16 09:24 PM
Distance/Time
Traveled:
137nm/1:31
Distance/Time
To Go:
Arrived

Flight Plot

Page will automatically refresh every two minutes.

Flight plan parsing failed; only flown route is shown


Map Options




Map Legend


Flown Route
Filed Route
Departure Airport
Arrival Airport
Navaid (VOR, NDB)
Fix

Horizontal Profiles

Position Reports

Time Latitude Longitude Heading Altitude Ground
Speed
17-Jun-16 19:25 35.133320 -118.438206 210 4004ft 0kts
17-Jun-16 19:26 35.133320 -118.438206 210 4004ft 0kts
17-Jun-16 19:27 35.133320 -118.438206 210 4004ft 0kts
17-Jun-16 19:28 35.133320 -118.438206 210 4004ft 0kts
17-Jun-16 19:29 35.133320 -118.438206 210 4004ft 0kts
17-Jun-16 19:30 35.133320 -118.438206 210 4004ft 0kts
17-Jun-16 19:31 35.133320 -118.438206 210 4004ft 0kts
17-Jun-16 19:32 35.133314 -118.438197 210 4004ft 0kts
17-Jun-16 19:33 35.133306 -118.438183 210 4004ft 0kts
17-Jun-16 19:34 35.133303 -118.438185 210 4004ft 0kts
17-Jun-16 19:35 35.133300 -118.438187 210 4004ft 0kts
17-Jun-16 19:36 35.133297 -118.438189 210 4004ft 0kts
17-Jun-16 19:37 35.133294 -118.438191 210 4004ft 0kts
17-Jun-16 19:38 35.133291 -118.438194 210 4004ft 0kts
17-Jun-16 19:39 35.133288 -118.438196 210 4004ft 0kts
17-Jun-16 19:40 35.133285 -118.438198 210 4004ft 0kts
17-Jun-16 19:41 35.133282 -118.438200 210 4004ft 0kts
17-Jun-16 19:42 35.133279 -118.438202 210 4004ft 0kts
17-Jun-16 19:43 35.133276 -118.438204 210 4004ft 0kts
17-Jun-16 19:44 35.133273 -118.438206 210 4004ft 0kts
17-Jun-16 19:45 35.133270 -118.438208 210 4004ft 0kts
17-Jun-16 19:46 35.133267 -118.438210 210 4004ft 0kts
17-Jun-16 19:47 35.133091 -118.437867 112 4004ft 12kts
17-Jun-16 19:48 35.131678 -118.433924 27 4004ft 4kts
17-Jun-16 19:49 35.131983 -118.433845 299 4004ft 0kts
17-Jun-16 19:50 35.135176 -118.439574 302 4060ft 65kts
17-Jun-16 19:51 35.134445 -118.461781 265 4722ft 71kts
17-Jun-16 19:52 35.119419 -118.474938 131 5497ft 94kts
17-Jun-16 19:53 35.115030 -118.446463 87 6064ft 107kts
17-Jun-16 19:54 35.120410 -118.411959 71 6283ft 120kts
17-Jun-16 19:55 35.108854 -118.382151 150 6999ft 100kts
17-Jun-16 19:56 35.087120 -118.366905 155 7371ft 97kts
17-Jun-16 19:57 35.059550 -118.354905 166 7776ft 98kts
17-Jun-16 19:58 35.034802 -118.353876 189 8047ft 100kts
17-Jun-16 19:59 35.005929 -118.342263 153 8371ft 103kts
17-Jun-16 20:00 34.979011 -118.322084 152 8700ft 103kts
17-Jun-16 20:01 34.956917 -118.305452 152 8978ft 103kts
17-Jun-16 20:02 34.931028 -118.285984 153 9300ft 103kts
17-Jun-16 20:03 34.910133 -118.270284 154 9559ft 102kts
17-Jun-16 20:04 34.885667 -118.251911 155 9864ft 101kts
17-Jun-16 20:05 34.861271 -118.233603 156 10172ft 99kts
17-Jun-16 20:06 34.836064 -118.214699 157 10493ft 98kts
17-Jun-16 20:07 34.816389 -118.199946 157 10748ft 98kts
17-Jun-16 20:08 34.790517 -118.180698 157 10925ft 106kts
17-Jun-16 20:09 34.767897 -118.163768 157 10922ft 108kts
17-Jun-16 20:10 34.736652 -118.140358 157 10919ft 109kts
17-Jun-16 20:11 34.715389 -118.124530 157 10923ft 109kts
17-Jun-16 20:12 34.687715 -118.103088 155 10916ft 110kts
17-Jun-16 20:13 34.661727 -118.083172 156 10921ft 109kts
17-Jun-16 20:14 34.635375 -118.063487 156 10920ft 109kts
17-Jun-16 20:15 34.618392 -118.029871 126 10920ft 119kts
17-Jun-16 20:16 34.602149 -117.992954 128 10917ft 119kts
17-Jun-16 20:17 34.588137 -117.961912 129 10912ft 120kts
17-Jun-16 20:18 34.571072 -117.924112 129 10992ft 118kts
17-Jun-16 20:19 34.555738 -117.890345 127 10994ft 121kts
17-Jun-16 20:20 34.537816 -117.850626 127 11002ft 120kts
17-Jun-16 20:21 34.523032 -117.818127 128 11003ft 121kts
17-Jun-16 20:22 34.507832 -117.784627 128 11002ft 121kts
17-Jun-16 20:23 34.488615 -117.742345 128 11000ft 122kts
17-Jun-16 20:24 34.476439 -117.715609 127 11003ft 122kts
17-Jun-16 20:25 34.457242 -117.673409 128 11002ft 121kts
17-Jun-16 20:26 34.441074 -117.637902 127 11001ft 122kts
17-Jun-16 20:27 34.423858 -117.600209 127 11002ft 122kts
17-Jun-16 20:28 34.407648 -117.564629 127 10999ft 123kts
17-Jun-16 20:29 34.390394 -117.527144 128 10987ft 122kts
17-Jun-16 20:30 34.376487 -117.496681 127 10992ft 122kts
17-Jun-16 20:31 34.358619 -117.457630 127 10993ft 122kts
17-Jun-16 20:32 34.341459 -117.420274 127 10997ft 122kts
17-Jun-16 20:33 34.326750 -117.388253 127 10995ft 123kts
17-Jun-16 20:34 34.307999 -117.347405 128 10991ft 122kts
17-Jun-16 20:35 34.293868 -117.316750 127 10986ft 123kts
17-Jun-16 20:36 34.275654 -117.277060 127 10982ft 123kts
17-Jun-16 20:37 34.260137 -117.243408 127 11019ft 121kts
17-Jun-16 20:38 34.241981 -117.204056 127 11030ft 124kts
17-Jun-16 20:39 34.225755 -117.168940 127 11036ft 123kts
17-Jun-16 20:40 34.210173 -117.135354 127 11008ft 125kts
17-Jun-16 20:41 34.187908 -117.095857 137 11008ft 120kts
17-Jun-16 20:41 34.172265 -117.076755 147 11014ft 117kts
17-Jun-16 20:43 34.143606 -117.046959 146 11026ft 118kts
17-Jun-16 20:44 34.118607 -117.014074 140 11039ft 119kts
17-Jun-16 20:45 34.099166 -116.988371 140 11049ft 120kts
17-Jun-16 20:46 34.074217 -116.955458 140 11037ft 120kts
17-Jun-16 20:47 34.054995 -116.925960 134 11036ft 122kts
17-Jun-16 20:48 34.031360 -116.888973 136 11026ft 123kts
17-Jun-16 20:49 34.016675 -116.855153 122 11021ft 127kts
17-Jun-16 20:50 34.002697 -116.820284 123 11022ft 126kts
17-Jun-16 20:51 33.987636 -116.775419 116 10994ft 130kts
17-Jun-16 20:52 33.979235 -116.738280 89 10962ft 136kts
17-Jun-16 20:53 33.986907 -116.685104 103 10947ft 133kts
17-Jun-16 20:54 33.973578 -116.643607 125 10915ft 127kts
17-Jun-16 20:55 33.958311 -116.610634 126 10882ft 126kts
17-Jun-16 20:56 33.940446 -116.572700 127 10852ft 126kts
17-Jun-16 20:57 33.923591 -116.536997 127 10831ft 127kts
17-Jun-16 20:58 33.906899 -116.501650 128 10816ft 126kts
17-Jun-16 20:59 33.889298 -116.466542 127 10803ft 126kts
17-Jun-16 21:00 33.873228 -116.430408 104 10791ft 133kts
17-Jun-16 21:01 33.887689 -116.386909 67 10809ft 137kts
17-Jun-16 21:02 33.904227 -116.342297 67 10842ft 135kts
17-Jun-16 21:03 33.920240 -116.299261 67 10848ft 136kts
17-Jun-16 21:04 33.932133 -116.267198 66 10857ft 136kts
17-Jun-16 21:05 33.948001 -116.224405 67 10866ft 137kts
17-Jun-16 21:06 33.965232 -116.177934 67 10875ft 137kts
17-Jun-16 21:07 33.979179 -116.140305 67 10748ft 142kts
17-Jun-16 21:08 33.998327 -116.088313 67 10020ft 137kts
17-Jun-16 21:09 34.011215 -116.053442 67 9333ft 127kts
17-Jun-16 21:10 34.027476 -116.009363 68 8367ft 121kts
17-Jun-16 21:11 34.038518 -115.979567 71 7474ft 111kts
17-Jun-16 21:12 34.049235 -115.950431 72 7018ft 108kts
17-Jun-16 21:13 34.062633 -115.913818 72 7016ft 105kts
17-Jun-16 21:14 34.067857 -115.884491 109 6657ft 100kts
17-Jun-16 21:15 34.082116 -115.852457 10 5780ft 115kts
17-Jun-16 21:16 34.107120 -115.864888 318 5168ft 105kts
17-Jun-16 21:17 34.126264 -115.892255 319 3918ft 113kts
17-Jun-16 21:18 34.146699 -115.893765 72 3203ft 85kts
17-Jun-16 21:19 34.136032 -115.900645 254 2478ft 63kts
17-Jun-16 21:20 34.134531 -115.924157 265 2045ft 58kts
17-Jun-16 21:21 34.134404 -115.940197 268 1890ft 28kts
17-Jun-16 21:22 34.135119 -115.941538 358 1890ft 0kts

Navigation Log

Ident Type
Flight plan parsing failed, navigation log unavailable